Time;durP1;ratioP1;P1;durP2;ratioP2;P2;SDS_P1;SDS_P2;PMS_P1;PMS_P2;Temp;Humidity;BMP_temperature;BMP_pressure;BME280_temperature;BME280_humidity;BME280_pressure;Samples;Min_cycle;Max_cycle;Signal;HPM_P1;HPM_P2
2020/12/08 00:00:39;;;;;;;31.87;16.10;;;;;;;2.08;99.92;94644.31;5038183;28;20936;-89
2020/12/08 00:03:06;;;;;;;31.30;16.97;;;;;;;2.22;99.52;94639.59;5038224;28;20438;-88
2020/12/08 00:05:32;;;;;;;27.90;15.07;;;;;;;2.01;100.00;94645.69;5038863;28;20807;-89
2020/12/08 00:07:59;;;;;;;26.63;15.00;;;;;;;2.09;100.00;94635.81;5037987;28;20490;-89
2020/12/08 00:10:26;;;;;;;25.70;15.03;;;;;;;2.08;100.00;94645.03;5037824;28;20522;-89
2020/12/08 00:12:52;;;;;;;29.30;16.67;;;;;;;2.10;99.85;94642.53;5037660;28;20959;-87
2020/12/08 00:15:21;;;;;;;32.90;17.33;;;;;;;2.12;99.97;94648.06;5037801;28;20822;-89
2020/12/08 00:17:48;;;;;;;32.40;17.47;;;;;;;2.15;100.00;94649.66;5037261;28;20526;-89
2020/12/08 00:20:16;;;;;;;32.50;17.30;;;;;;;2.20;99.70;94650.03;5040089;28;20435;-88
2020/12/08 00:22:47;;;;;;;31.53;17.70;;;;;;;2.20;99.96;94650.75;5060360;28;20522;-88
2020/12/08 00:25:17;;;;;;;31.77;17.27;;;;;;;2.18;99.84;94642.59;5060938;28;20484;-88
2020/12/08 00:27:44;;;;;;;34.90;18.03;;;;;;;2.13;100.00;94638.13;5059919;28;20483;-87
2020/12/08 00:30:12;;;;;;;31.13;17.50;;;;;;;2.10;100.00;94625.88;5050257;28;20956;-87
2020/12/08 00:32:39;;;;;;;36.47;18.30;;;;;;;2.07;100.00;94622.31;5040260;28;20795;-87
2020/12/08 00:35:06;;;;;;;32.07;17.17;;;;;;;2.14;100.00;94626.97;5037458;28;20458;-88
2020/12/08 00:37:33;;;;;;;35.97;17.60;;;;;;;2.02;100.00;94630.44;5038795;28;20555;-87
2020/12/08 00:39:59;;;;;;;34.90;18.80;;;;;;;2.06;100.00;94628.19;5039369;28;20486;-87
2020/12/08 00:42:26;;;;;;;35.70;18.60;;;;;;;2.07;100.00;94632.94;5037408;28;20402;-87
2020/12/08 00:44:53;;;;;;;41.73;17.73;;;;;;;2.16;100.00;94635.13;5037603;28;20410;-87
2020/12/08 00:47:19;;;;;;;35.50;19.10;;;;;;;2.14;100.00;94640.25;5048306;28;20479;-87
2020/12/08 00:49:46;;;;;;;36.77;19.30;;;;;;;2.33;100.00;94645.28;5049809;28;20390;-87
2020/12/08 00:52:12;;;;;;;35.30;18.40;;;;;;;2.31;98.71;94660.38;5057212;28;20438;-88
2020/12/08 00:54:38;;;;;;;34.17;18.37;;;;;;;2.34;99.04;94651.34;5050942;28;20426;-86
2020/12/08 00:57:05;;;;;;;32.13;17.77;;;;;;;2.30;99.06;94649.00;5037490;28;20550;-87
2020/12/08 00:59:32;;;;;;;34.73;18.60;;;;;;;2.31;99.01;94637.13;5037276;28;20446;-87
2020/12/08 01:02:00;;;;;;;31.93;17.93;;;;;;;2.39;98.80;94629.16;5036850;28;20461;-87
2020/12/08 01:04:27;;;;;;;33.97;18.63;;;;;;;2.23;98.47;94638.34;5037324;28;20479;-87
2020/12/08 01:06:54;;;;;;;33.50;18.20;;;;;;;2.29;98.88;94642.25;5041344;28;20501;-87
2020/12/08 01:09:23;;;;;;;33.30;18.40;;;;;;;2.36;98.78;94633.59;5037787;28;20586;-88
2020/12/08 01:11:50;;;;;;;37.50;20.00;;;;;;;2.30;99.31;94638.38;5037447;28;20932;-86
2020/12/08 01:14:16;;;;;;;36.47;18.40;;;;;;;2.29;98.72;94641.56;5036588;28;20440;-86
2020/12/08 01:16:43;;;;;;;34.83;19.30;;;;;;;2.42;98.69;94631.47;5036225;28;20453;-86
2020/12/08 01:19:10;;;;;;;38.27;19.10;;;;;;;2.39;97.99;94634.50;5036386;28;20457;-87
2020/12/08 01:21:36;;;;;;;35.07;18.87;;;;;;;2.49;96.90;94640.72;5036041;28;20434;-86
2020/12/08 01:24:03;;;;;;;40.03;21.03;;;;;;;2.36;97.71;94632.88;5036372;28;20435;-86
2020/12/08 01:26:29;;;;;;;34.40;18.77;;;;;;;2.40;97.37;94630.59;5052647;28;20420;-90
2020/12/08 01:28:55;;;;;;;34.40;18.63;;;;;;;2.46;96.74;94631.84;5058842;28;20475;-86
2020/12/08 01:31:30;;;;;;;37.67;20.50;;;;;;;2.34;97.44;94624.72;5059480;28;20538;-89
2020/12/08 01:33:58;;;;;;;35.87;20.53;;;;;;;2.28;97.68;94621.50;5042235;28;20486;-86
2020/12/08 01:36:25;;;;;;;34.30;17.40;;;;;;;2.29;97.62;94620.97;5036002;28;20439;-87
2020/12/08 01:38:51;;;;;;;34.20;17.77;;;;;;;2.32;97.84;94616.56;5035148;28;20451;-87
2020/12/08 01:41:18;;;;;;;37.67;18.47;;;;;;;2.19;97.46;94612.09;5034968;28;20462;-88
2020/12/08 01:43:46;;;;;;;36.27;18.63;;;;;;;2.23;98.02;94611.72;5035047;28;20450;-88
2020/12/08 01:46:16;;;;;;;33.53;17.47;;;;;;;2.28;98.64;94616.19;5035071;28;20451;-88
2020/12/08 01:48:43;;;;;;;37.10;18.80;;;;;;;2.23;98.50;94614.38;5034954;28;20582;-87
2020/12/08 01:51:11;;;;;;;35.80;19.33;;;;;;;2.25;98.15;94623.28;5034489;28;20530;-87
2020/12/08 01:53:37;;;;;;;30.50;17.90;;;;;;;2.32;97.79;94621.88;5035279;28;20453;-88
2020/12/08 01:56:04;;;;;;;38.53;20.67;;;;;;;2.32;97.44;94624.56;5035075;28;20439;-88
2020/12/08 01:58:30;;;;;;;32.67;19.07;;;;;;;2.33;98.18;94623.28;5035431;28;20978;-87
2020/12/08 02:00:56;;;;;;;37.27;19.43;;;;;;;2.30;97.66;94614.41;5035074;28;20808;-89
2020/12/08 02:03:26;;;;;;;34.50;18.60;;;;;;;2.24;97.62;94613.16;5035391;28;20963;-87
2020/12/08 02:05:52;;;;;;;39.33;19.67;;;;;;;2.14;98.65;94623.59;5035121;28;20474;-88
2020/12/08 02:08:28;;;;;;;45.27;21.83;;;;;;;2.12;98.73;94618.81;5034702;28;20483;-88
2020/12/08 02:10:54;;;;;;;41.10;21.37;;;;;;;2.14;98.70;94618.25;5034800;28;20417;-88
2020/12/08 02:13:20;;;;;;;40.17;21.27;;;;;;;2.24;98.65;94619.19;5034903;28;20444;-87
2020/12/08 02:15:47;;;;;;;34.50;18.80;;;;;;;2.24;98.19;94618.47;5034564;28;21006;-84
2020/12/08 02:18:14;;;;;;;38.77;20.20;;;;;;;2.16;98.06;94605.84;5034379;28;20469;-87
2020/12/08 02:20:41;;;;;;;41.07;19.90;;;;;;;2.29;97.54;94604.31;5035077;28;20451;-87
2020/12/08 02:23:08;;;;;;;36.37;19.40;;;;;;;2.10;97.58;94604.59;5034318;28;20494;-87
2020/12/08 02:25:34;;;;;;;43.77;22.37;;;;;;;1.95;98.89;94607.19;5033589;28;20424;-88
2020/12/08 02:28:01;;;;;;;45.70;21.87;;;;;;;1.95;98.87;94607.19;5034807;28;20450;-87
2020/12/08 02:30:30;;;;;;;37.20;21.20;;;;;;;1.91;99.07;94620.13;5034436;28;20458;-85
2020/12/08 02:32:56;;;;;;;34.00;19.50;;;;;;;1.94;98.92;94619.78;5034877;28;20427;-86
2020/12/08 02:35:23;;;;;;;40.53;22.93;;;;;;;1.98;98.80;94625.47;5034887;28;20439;-87
2020/12/08 02:37:50;;;;;;;47.37;23.40;;;;;;;2.00;98.71;94617.69;5034511;28;20455;-87
2020/12/08 02:40:17;;;;;;;43.20;22.40;;;;;;;1.99;98.66;94610.22;5034219;28;20443;-87
2020/12/08 02:42:44;;;;;;;42.27;21.97;;;;;;;2.02;99.21;94614.50;5033985;28;20551;-88
2020/12/08 02:45:11;;;;;;;43.93;21.07;;;;;;;2.08;98.91;94618.44;5034517;28;20451;-88
2020/12/08 02:47:37;;;;;;;43.17;21.87;;;;;;;2.00;98.66;94615.03;5034281;28;20462;-88
2020/12/08 02:50:04;;;;;;;46.17;23.83;;;;;;;1.97;98.94;94613.41;5034305;28;20436;-88
2020/12/08 02:52:33;;;;;;;43.53;21.30;;;;;;;1.97;99.43;94615.38;5037564;28;20520;-88
2020/12/08 02:55:00;;;;;;;40.20;20.77;;;;;;;1.94;99.49;94609.13;5038384;28;20923;-88
2020/12/08 02:57:26;;;;;;;41.50;21.60;;;;;;;2.00;99.37;94606.34;5038485;28;20530;-88
2020/12/08 02:59:53;;;;;;;47.83;23.87;;;;;;;1.95;99.07;94597.28;5038390;28;20514;-88
2020/12/08 03:02:19;;;;;;;41.93;22.47;;;;;;;1.81;99.79;94601.31;5038581;28;20431;-88
2020/12/08 03:04:45;;;;;;;50.07;22.00;;;;;;;1.82;99.61;94602.69;5038362;28;20443;-87
2020/12/08 03:07:12;;;;;;;49.17;25.80;;;;;;;1.78;99.94;94596.31;5042226;28;21010;-86
2020/12/08 03:09:38;;;;;;;48.73;26.67;;;;;;;1.74;99.61;94601.25;5038446;28;20476;-86
2020/12/08 03:12:07;;;;;;;50.90;26.07;;;;;;;1.80;99.45;94591.19;5041475;28;20780;-88
2020/12/08 03:14:33;;;;;;;39.70;21.73;;;;;;;1.83;100.00;94598.09;5047247;28;20435;-88
2020/12/08 03:16:59;;;;;;;47.37;22.67;;;;;;;1.86;99.66;94602.38;5047023;28;20473;-89
2020/12/08 03:19:26;;;;;;;41.90;22.20;;;;;;;1.89;99.40;94610.00;5040408;28;20434;-87
2020/12/08 03:21:52;;;;;;;46.10;21.30;;;;;;;1.87;99.44;94599.19;5059706;28;20430;-90
2020/12/08 03:24:19;;;;;;;45.87;23.30;;;;;;;1.76;99.54;94599.47;5062192;28;20416;-89
2020/12/08 03:26:45;;;;;;;37.40;21.47;;;;;;;1.79;99.38;94601.09;5061919;28;20439;-89
2020/12/08 03:29:12;;;;;;;50.50;23.80;;;;;;;1.82;98.50;94592.06;5057292;28;20538;-87
2020/12/08 03:31:39;;;;;;;40.97;21.30;;;;;;;1.79;98.93;94603.03;5037846;28;20431;-87
2020/12/08 03:34:05;;;;;;;37.77;19.90;;;;;;;1.76;99.17;94598.78;5037905;28;20822;-87
2020/12/08 03:36:31;;;;;;;42.07;22.03;;;;;;;1.69;98.56;94594.16;5038337;28;20799;-87
2020/12/08 03:38:59;;;;;;;39.40;21.97;;;;;;;1.63;99.20;94595.00;5037908;28;20550;-86
2020/12/08 03:41:25;;;;;;;44.17;23.10;;;;;;;1.84;98.04;94594.22;5038211;28;20447;-87
2020/12/08 03:43:52;;;;;;;47.07;22.90;;;;;;;1.75;98.35;94592.75;5037681;28;20438;-88
2020/12/08 03:46:20;;;;;;;44.13;21.40;;;;;;;1.76;98.57;94594.16;5037536;28;20819;-88
2020/12/08 03:48:47;;;;;;;45.33;23.43;;;;;;;1.64;98.55;94593.06;5037730;28;20493;-88
2020/12/08 03:51:14;;;;;;;51.73;24.57;;;;;;;1.64;98.99;94598.38;5038236;28;20439;-87
2020/12/08 03:53:40;;;;;;;42.13;22.33;;;;;;;1.60;99.01;94587.34;5037854;28;20975;-87
2020/12/08 03:56:10;;;;;;;47.90;23.50;;;;;;;1.46;99.62;94592.06;5037621;28;20489;-87
2020/12/08 03:58:36;;;;;;;44.00;23.73;;;;;;;1.56;99.33;94587.00;5037315;28;20470;-88
2020/12/08 04:01:03;;;;;;;43.00;23.17;;;;;;;1.52;99.50;94586.63;5037422;28;20530;-87
2020/12/08 04:03:30;;;;;;;48.03;24.10;;;;;;;1.49;99.73;94592.97;5035823;28;20444;-88
2020/12/08 04:06:01;;;;;;;41.50;22.07;;;;;;;1.62;99.19;94595.53;5037820;28;20948;-87
2020/12/08 04:08:27;;;;;;;42.43;21.53;;;;;;;1.57;99.46;94594.44;5038193;28;20487;-87
2020/12/08 04:10:53;;;;;;;43.93;23.27;;;;;;;1.48;99.23;94589.59;5037402;28;20428;-88
2020/12/08 04:13:20;;;;;;;44.00;23.20;;;;;;;1.46;99.54;94586.03;5037444;28;20431;-88
2020/12/08 04:15:46;;;;;;;39.63;20.53;;;;;;;1.40;99.65;94594.16;5037775;28;20450;-87
2020/12/08 04:18:13;;;;;;;40.37;22.33;;;;;;;1.43;99.55;94579.84;5038856;28;20463;-88
2020/12/08 04:20:41;;;;;;;42.13;24.23;;;;;;;1.55;98.10;94580.25;5038832;28;20443;-87
2020/12/08 04:23:10;;;;;;;43.10;21.30;;;;;;;1.47;98.79;94582.16;5039248;28;20909;-87
2020/12/08 04:25:37;;;;;;;46.80;22.00;;;;;;;1.32;98.76;94590.75;5044849;28;20471;-87
2020/12/08 04:28:04;;;;;;;42.43;21.03;;;;;;;1.34;99.26;94588.28;5060276;28;20463;-88
2020/12/08 04:30:30;;;;;;;38.87;20.30;;;;;;;1.31;99.57;94585.97;5042167;28;20463;-87
2020/12/08 04:32:57;;;;;;;46.00;22.30;;;;;;;1.24;99.34;94591.94;5036850;28;20441;-89
2020/12/08 04:35:23;;;;;;;47.30;23.20;;;;;;;1.22;99.56;94594.41;5037686;28;20438;-88
2020/12/08 04:37:50;;;;;;;41.93;21.13;;;;;;;1.20;100.00;94594.19;5037582;28;20463;-90
2020/12/08 04:40:17;;;;;;;45.30;21.37;;;;;;;1.22;100.00;94597.78;5037481;28;20963;-90
2020/12/08 04:42:44;;;;;;;48.10;23.33;;;;;;;1.20;100.00;94588.88;5037529;28;20442;-90
2020/12/08 04:45:11;;;;;;;54.23;24.83;;;;;;;1.15;100.00;94587.81;5036953;28;20842;-88
2020/12/08 04:47:39;;;;;;;46.83;23.17;;;;;;;1.10;100.00;94583.31;5036642;28;20455;-88
2020/12/08 04:50:05;;;;;;;46.23;22.40;;;;;;;1.03;100.00;94589.31;5036731;28;20487;-89
2020/12/08 04:52:31;;;;;;;44.50;22.70;;;;;;;1.05;100.00;94592.88;5036587;28;20939;-88
2020/12/08 04:54:59;;;;;;;49.33;24.57;;;;;;;1.08;100.00;94588.44;5036549;28;20538;-87
2020/12/08 04:57:25;;;;;;;45.87;22.90;;;;;;;1.06;100.00;94589.00;5036522;28;20830;-87
2020/12/08 05:00:01;;;;;;;43.97;22.80;;;;;;;1.04;100.00;94594.09;5036289;28;20448;-86
2020/12/08 05:02:28;;;;;;;47.33;24.93;;;;;;;1.15;100.00;94592.41;5036270;28;20431;-87
2020/12/08 05:04:55;;;;;;;55.23;25.50;;;;;;;1.10;100.00;94590.59;5036218;28;21051;-87
2020/12/08 05:07:27;;;;;;;45.93;23.50;;;;;;;1.19;100.00;94582.16;5036023;28;20498;-87
2020/12/08 05:09:54;;;;;;;45.30;22.87;;;;;;;1.11;100.00;94571.47;5036348;28;20541;-87
2020/12/08 05:12:22;;;;;;;48.43;25.80;;;;;;;1.11;100.00;94581.38;5036121;28;20427;-87
2020/12/08 05:14:49;;;;;;;47.93;22.60;;;;;;;1.11;100.00;94581.38;5036185;28;20490;-87
2020/12/08 05:17:22;;;;;;;51.23;25.70;;;;;;;1.16;100.00;94570.63;5035982;28;20463;-88
2020/12/08 05:19:49;;;;;;;47.57;25.60;;;;;;;1.16;100.00;94562.66;5036945;28;20423;-87
2020/12/08 05:22:15;;;;;;;47.10;23.10;;;;;;;1.21;100.00;94563.75;5040906;28;20448;-86
2020/12/08 05:24:41;;;;;;;57.43;26.23;;;;;;;1.11;100.00;94560.16;5048520;28;20419;-88
2020/12/08 05:27:08;;;;;;;53.97;25.70;;;;;;;1.12;100.00;94569.53;5049815;28;20821;-88
2020/12/08 05:29:42;;;;;;;61.67;26.73;;;;;;;1.27;100.00;94575.66;5052361;28;20547;-88
2020/12/08 05:32:29;;;;;;;54.07;26.43;;;;;;;1.47;100.00;94574.19;5037376;28;20448;-89
2020/12/08 05:34:56;;;;;;;53.60;24.87;;;;;;;1.36;100.00;94571.81;5036274;28;20446;-88
2020/12/08 05:37:23;;;;;;;50.67;23.50;;;;;;;1.35;100.00;94568.44;5035963;28;20441;-87
2020/12/08 05:39:49;;;;;;;58.13;26.77;;;;;;;1.24;100.00;94573.34;5036139;28;20448;-88
2020/12/08 05:42:19;;;;;;;60.37;29.20;;;;;;;1.28;100.00;94573.72;5036305;28;20450;-88
2020/12/08 05:44:48;;;;;;;49.70;25.17;;;;;;;1.43;100.00;94581.78;5035567;28;20499;-87
2020/12/08 05:47:19;;;;;;;53.70;24.57;;;;;;;1.48;100.00;94594.19;5035636;28;20482;-87
2020/12/08 05:49:46;;;;;;;45.67;24.70;;;;;;;1.38;99.98;94593.28;5035718;28;20596;-87
2020/12/08 05:52:18;;;;;;;46.83;23.13;;;;;;;1.37;99.66;94592.56;5036808;28;20923;-88
2020/12/08 05:54:45;;;;;;;44.50;23.23;;;;;;;1.36;99.31;94590.41;5035808;28;20825;-87
2020/12/08 05:57:15;;;;;;;47.13;25.10;;;;;;;1.34;99.92;94582.25;5036384;28;20475;-87
2020/12/08 05:59:42;;;;;;;49.70;24.87;;;;;;;1.43;99.98;94579.13;5036678;28;20443;-87
2020/12/08 06:02:10;;;;;;;47.60;24.10;;;;;;;1.35;99.28;94573.03;5036821;28;20435;-87
2020/12/08 06:04:40;;;;;;;51.17;25.77;;;;;;;1.30;100.00;94581.88;5037229;28;20541;-86
2020/12/08 06:07:06;;;;;;;49.40;24.57;;;;;;;1.33;100.00;94562.22;5034911;28;20506;-87
2020/12/08 06:09:34;;;;;;;51.23;24.40;;;;;;;1.36;100.00;94574.47;5035372;28;20497;-86
2020/12/08 06:12:01;;;;;;;48.73;24.50;;;;;;;1.44;99.73;94573.28;5036397;28;20519;-87
2020/12/08 06:14:35;;;;;;;48.27;25.17;;;;;;;1.48;98.89;94578.97;5035924;28;20517;-87
2020/12/08 06:17:06;;;;;;;47.00;22.17;;;;;;;1.39;99.20;94573.44;5036941;28;20467;-86
2020/12/08 06:19:35;;;;;;;47.67;23.43;;;;;;;1.38;99.39;94569.38;5036454;28;20515;-87
2020/12/08 06:22:10;;;;;;;48.13;23.33;;;;;;;1.35;99.21;94573.03;5042610;28;20422;-88
2020/12/08 06:24:36;;;;;;;49.53;24.47;;;;;;;1.36;99.74;94585.09;5058402;28;20517;-89
2020/12/08 06:27:03;;;;;;;49.17;24.97;;;;;;;1.36;100.00;94593.06;5057487;28;20440;-93
2020/12/08 06:29:29;;;;;;;47.27;23.73;;;;;;;1.27;99.95;94588.94;5057663;28;20469;-87
2020/12/08 06:31:56;;;;;;;48.33;23.40;;;;;;;1.21;100.00;94585.72;5045951;28;20438;-86
2020/12/08 06:34:25;;;;;;;46.83;25.90;;;;;;;1.18;100.00;94597.38;5035542;28;20443;-86
2020/12/08 06:36:53;;;;;;;48.30;24.63;;;;;;;1.09;100.00;94584.56;5035856;28;20474;-87
2020/12/08 06:39:21;;;;;;;53.93;25.20;;;;;;;1.08;100.00;94591.81;5035780;28;20470;-86
2020/12/08 06:41:48;;;;;;;47.87;25.33;;;;;;;1.20;100.00;94594.91;5036170;28;20482;-85
2020/12/08 06:44:17;;;;;;;53.83;25.43;;;;;;;1.55;100.00;94604.88;5036310;28;20442;-86
2020/12/08 06:46:54;;;;;;;49.70;25.13;;;;;;;1.73;99.12;94605.84;5036148;28;20458;-86
2020/12/08 06:49:21;;;;;;;44.00;22.17;;;;;;;1.91;97.51;94604.19;5035878;28;20483;-88
2020/12/08 06:51:55;;;;;;;46.77;23.33;;;;;;;2.02;96.73;94615.22;5036305;28;20435;-86
2020/12/08 06:54:22;;;;;;;47.20;23.63;;;;;;;2.09;95.67;94619.16;5035981;28;20523;-86
2020/12/08 06:56:48;;;;;;;42.43;20.13;;;;;;;2.09;95.39;94622.53;5035697;28;20928;-89
2020/12/08 06:59:22;;;;;;;45.77;23.83;;;;;;;2.11;94.58;94621.97;5037947;28;20875;-89
2020/12/08 07:01:50;;;;;;;47.23;22.10;;;;;;;1.94;95.19;94619.09;5038039;28;20854;-89
2020/12/08 07:04:17;;;;;;;43.33;22.07;;;;;;;1.97;95.32;94623.34;5036624;28;20497;-89
2020/12/08 07:06:44;;;;;;;47.37;23.40;;;;;;;1.80;95.66;94626.44;5037177;28;20454;-89
2020/12/08 07:09:12;;;;;;;37.90;21.90;;;;;;;1.66;96.27;94617.16;5035680;28;20986;-89
2020/12/08 07:11:38;;;;;;;51.13;24.87;;;;;;;1.63;97.10;94622.81;5036328;28;20439;-90
2020/12/08 07:14:05;;;;;;;50.37;23.70;;;;;;;1.56;97.22;94605.59;5037412;28;20509;-89
2020/12/08 07:16:33;;;;;;;54.23;25.87;;;;;;;1.39;97.72;94602.66;5036929;28;20461;-88
2020/12/08 07:19:01;;;;;;;54.70;25.77;;;;;;;1.37;98.79;94607.78;5037637;28;20906;-90
2020/12/08 07:21:28;;;;;;;56.63;26.03;;;;;;;1.38;99.05;94614.53;5036510;28;20479;-89
2020/12/08 07:23:55;;;;;;;49.67;25.97;;;;;;;1.26;98.66;94618.66;5036492;28;20530;-88
2020/12/08 07:26:24;;;;;;;54.23;27.37;;;;;;;1.22;99.41;94624.34;5037355;28;20432;-89
2020/12/08 07:28:51;;;;;;;53.33;25.47;;;;;;;1.43;99.14;94627.66;5038371;28;20513;-91
2020/12/08 07:31:24;;;;;;;46.83;25.70;;;;;;;1.44;98.41;94633.69;5037083;28;20454;-89
2020/12/08 07:33:51;;;;;;;49.40;24.90;;;;;;;1.47;98.89;94633.34;5039817;28;20786;-90
2020/12/08 07:36:25;;;;;;;49.73;26.13;;;;;;;1.52;98.80;94629.84;5042161;28;20455;-91
2020/12/08 07:38:53;;;;;;;46.90;24.50;;;;;;;1.51;98.16;94622.38;5044274;28;20511;-91
2020/12/08 07:41:20;;;;;;;50.30;25.57;;;;;;;1.50;98.15;94621.66;5046022;28;20435;-92
2020/12/08 07:43:48;;;;;;;52.30;26.37;;;;;;;1.44;97.82;94623.75;5046816;28;20974;-91
2020/12/08 07:46:22;;;;;;;47.20;26.23;;;;;;;1.49;98.28;94619.53;5053071;28;20431;-91
2020/12/08 07:48:59;;;;;;;50.63;25.87;;;;;;;1.40;97.63;94622.69;5060869;28;20546;-88
2020/12/08 07:51:27;;;;;;;51.60;24.73;;;;;;;1.43;97.90;94632.25;5060749;28;20411;-92
2020/12/08 07:53:53;;;;;;;52.70;23.67;;;;;;;1.52;97.63;94637.09;5048246;28;20505;-89
2020/12/08 07:56:24;;;;;;;56.60;27.00;;;;;;;1.70;97.93;94638.78;5043423;28;20459;-87
2020/12/08 07:58:51;;;;;;;47.90;25.00;;;;;;;1.85;96.79;94643.50;5050641;28;20459;-90
2020/12/08 08:01:17;;;;;;;51.47;26.07;;;;;;;1.85;96.19;94638.88;5041832;28;20434;-88
2020/12/08 08:03:44;;;;;;;45.67;23.27;;;;;;;1.85;96.55;94638.88;5040920;28;20447;-89
2020/12/08 08:06:13;;;;;;;49.27;24.43;;;;;;;1.86;95.93;94635.00;5039901;28;20498;-87
2020/12/08 08:08:39;;;;;;;48.87;25.50;;;;;;;2.07;95.37;94635.63;5038731;28;20621;-86
2020/12/08 08:11:06;;;;;;;45.33;24.20;;;;;;;2.06;95.54;94633.50;5040477;28;20470;-88
2020/12/08 08:13:32;;;;;;;44.97;24.10;;;;;;;1.90;94.86;94640.69;5039825;28;20471;-86
2020/12/08 08:16:00;;;;;;;50.97;25.03;;;;;;;1.78;95.66;94646.81;5039462;28;20482;-90
2020/12/08 08:18:26;;;;;;;43.70;22.80;;;;;;;1.61;96.11;94642.66;5048406;28;20487;-90
2020/12/08 08:20:53;;;;;;;48.73;25.17;;;;;;;1.54;97.00;94645.97;5051211;28;20446;-91
2020/12/08 08:23:19;;;;;;;51.00;24.77;;;;;;;1.61;96.70;94647.25;5060114;28;20447;-92
2020/12/08 08:25:46;;;;;;;45.50;23.30;;;;;;;1.61;97.16;94655.94;5060104;28;20435;-93
2020/12/08 08:28:13;;;;;;;56.53;26.90;;;;;;;1.73;95.81;94652.97;5060022;28;20459;-91
2020/12/08 08:30:39;;;;;;;56.83;26.07;;;;;;;1.72;96.51;94652.28;5059634;28;20479;-91
2020/12/08 08:33:07;;;;;;;49.83;24.70;;;;;;;1.85;95.60;94659.47;5059491;28;20420;-93
2020/12/08 08:35:34;;;;;;;47.13;25.70;;;;;;;1.89;94.31;94660.53;5049029;28;20423;-91
2020/12/08 08:38:00;;;;;;;42.10;22.57;;;;;;;2.06;94.37;94663.47;5044751;28;20491;-90
2020/12/08 08:40:27;;;;;;;51.53;25.57;;;;;;;2.05;94.06;94656.00;5041216;28;20466;-90
2020/12/08 08:42:55;;;;;;;46.07;23.27;;;;;;;2.31;93.02;94663.75;5041223;28;20427;-91
2020/12/08 08:45:21;;;;;;;41.77;21.73;;;;;;;2.36;92.31;94664.81;5040862;28;20454;-92
2020/12/08 08:47:48;;;;;;;41.20;21.00;;;;;;;2.38;91.32;94670.34;5045202;28;20471;-91
2020/12/08 08:50:16;;;;;;;56.47;31.47;;;;;;;2.53;91.36;94671.09;5040352;28;21033;-90
2020/12/08 08:52:42;;;;;;;42.10;23.20;;;;;;;2.60;90.97;94670.38;5039063;28;20428;-90
2020/12/08 08:55:10;;;;;;;42.57;22.30;;;;;;;2.69;90.77;94659.22;5038467;28;20806;-89
2020/12/08 08:57:37;;;;;;;40.07;21.70;;;;;;;2.87;90.97;94660.16;5038330;28;20530;-89
2020/12/08 09:00:06;;;;;;;38.50;20.47;;;;;;;2.93;88.98;94674.03;5037929;28;20415;-89
2020/12/08 09:02:33;;;;;;;37.80;19.80;;;;;;;2.97;88.96;94677.06;5040757;28;20447;-88
2020/12/08 09:05:00;;;;;;;40.53;21.33;;;;;;;3.04;88.44;94679.00;5041392;28;20474;-89
2020/12/08 09:07:29;;;;;;;37.60;20.70;;;;;;;2.93;88.40;94682.03;5042597;28;20520;-89
2020/12/08 09:09:56;;;;;;;42.00;21.43;;;;;;;2.91;88.69;94684.50;5043331;28;20475;-90
2020/12/08 09:12:23;;;;;;;39.57;21.23;;;;;;;3.00;89.04;94689.31;5047195;28;20455;-90
2020/12/08 09:14:53;;;;;;;44.57;24.03;;;;;;;2.90;89.00;94682.38;5046657;28;20410;-89
2020/12/08 09:17:31;;;;;;;41.90;21.97;;;;;;;3.04;89.10;94679.00;5050265;28;20469;-94
2020/12/08 09:20:11;;;;;;;39.90;23.30;;;;;;;2.99;88.40;94671.91;5058937;28;20475;-94
2020/12/08 09:22:47;;;;;;;39.83;20.37;;;;;;;2.94;89.12;94674.75;5057684;28;20446;-92
2020/12/08 09:25:24;;;;;;;38.73;21.67;;;;;;;3.01;88.51;94671.38;5059373;28;20447;-92
2020/12/08 09:28:23;;;;;;;47.73;24.37;;;;;;;3.12;88.40;94679.03;5059210;28;20514;-93
2020/12/08 09:31:11;;;;;;;46.37;24.27;;;;;;;2.99;89.22;94685.22;5055303;28;20418;-94
2020/12/08 09:33:41;;;;;;;40.67;21.20;;;;;;;3.04;88.45;94679.00;5058956;28;20462;-94
2020/12/08 09:36:07;;;;;;;45.77;22.93;;;;;;;3.18;88.41;94682.94;5059192;28;20417;-89
2020/12/08 09:38:36;;;;;;;38.07;20.20;;;;;;;3.23;88.14;94682.06;5058944;28;20467;-91
2020/12/08 09:41:02;;;;;;;40.73;22.07;;;;;;;2.90;88.81;94685.75;5058690;28;20435;-92
2020/12/08 09:43:29;;;;;;;46.33;23.50;;;;;;;2.83;89.31;94680.38;5045130;28;20493;-89
2020/12/08 09:45:56;;;;;;;36.00;20.73;;;;;;;3.07;88.41;94677.94;5042712;28;20447;-91
2020/12/08 09:48:22;;;;;;;39.17;20.60;;;;;;;3.08;88.19;94668.00;5046274;28;20482;-89
2020/12/08 09:50:49;;;;;;;44.90;22.07;;;;;;;3.08;87.74;94674.03;5041801;28;20987;-89
2020/12/08 09:53:15;;;;;;;39.03;21.67;;;;;;;3.13;87.65;94665.16;5040968;28;20440;-91
2020/12/08 09:55:43;;;;;;;49.33;20.83;;;;;;;3.17;87.29;94673.53;5047789;28;20419;-90
2020/12/08 09:58:10;;;;;;;41.60;21.83;;;;;;;3.18;87.11;94674.94;5042539;28;20464;-89
2020/12/08 10:00:37;;;;;;;42.00;21.97;;;;;;;3.26;86.92;94674.94;5040267;28;20574;-92
2020/12/08 10:03:03;;;;;;;37.90;20.10;;;;;;;3.22;87.11;94674.59;5044492;28;20415;-92
2020/12/08 10:05:30;;;;;;;42.33;22.60;;;;;;;3.26;87.22;94674.94;5051715;28;20477;-95
2020/12/08 10:07:57;;;;;;;39.87;19.80;;;;;;;3.32;86.67;94664.13;5039671;28;20466;-91
2020/12/08 10:10:23;;;;;;;40.40;23.70;;;;;;;3.18;86.94;94661.63;5038057;28;20491;-91
2020/12/08 10:12:51;;;;;;;40.20;21.50;;;;;;;3.13;86.99;94662.50;5040091;28;20432;-89
2020/12/08 10:15:18;;;;;;;39.27;22.37;;;;;;;3.29;87.16;94665.19;5051680;28;20434;-93
2020/12/08 10:17:45;;;;;;;41.83;22.00;;;;;;;3.20;85.95;94656.47;5046229;28;20471;-92
2020/12/08 10:20:11;;;;;;;42.57;22.93;;;;;;;3.23;86.55;94655.41;5041693;28;20437;-91
2020/12/08 10:22:38;;;;;;;41.43;20.17;;;;;;;3.42;86.89;94657.00;5037860;28;20467;-89
2020/12/08 10:25:04;;;;;;;40.27;22.30;;;;;;;3.52;85.96;94671.94;5044290;28;20533;-90
2020/12/08 10:27:31;;;;;;;38.70;20.73;;;;;;;3.64;85.15;94667.66;5042234;28;20440;-93
2020/12/08 10:30:01;;;;;;;49.97;20.67;;;;;;;3.70;84.27;94670.13;5056079;28;20486;-92
2020/12/08 10:32:28;;;;;;;38.03;20.00;;;;;;;3.66;83.93;94667.84;5045630;28;20495;-94
2020/12/08 10:34:54;;;;;;;34.97;19.37;;;;;;;3.67;84.22;94668.53;5054530;28;20507;-89
2020/12/08 10:37:22;;;;;;;31.70;18.10;;;;;;;3.65;84.68;94663.03;5051952;28;20478;-93
2020/12/08 10:39:49;;;;;;;37.30;20.23;;;;;;;3.61;84.50;94658.06;5056576;28;20440;-94
2020/12/08 10:42:15;;;;;;;34.07;18.43;;;;;;;3.68;83.81;94660.00;5041343;28;20432;-94
2020/12/08 10:44:42;;;;;;;38.00;21.53;;;;;;;3.65;83.16;94655.03;5054627;28;20416;-93
2020/12/08 10:47:09;;;;;;;34.60;19.27;;;;;;;3.66;83.69;94661.78;5050826;28;20443;-93
2020/12/08 10:49:35;;;;;;;32.40;19.00;;;;;;;3.76;83.53;94667.97;5048851;28;20514;-89
2020/12/08 10:52:02;;;;;;;34.63;19.43;;;;;;;3.75;83.11;94669.97;5041941;28;20397;-90
2020/12/08 10:54:29;;;;;;;34.03;18.93;;;;;;;4.06;82.24;94670.59;5046066;28;20410;-91
2020/12/08 10:56:55;;;;;;;34.23;19.77;;;;;;;4.07;80.38;94672.00;5041642;28;20482;-90
2020/12/08 10:59:22;;;;;;;30.53;17.97;;;;;;;4.01;80.74;94666.16;5039800;28;20481;-91
2020/12/08 11:01:48;;;;;;;33.10;19.10;;;;;;;4.07;80.65;94674.69;5037989;28;20425;-85
2020/12/08 11:04:17;;;;;;;32.13;18.27;;;;;;;4.08;80.75;94665.44;5040624;28;20453;-87
2020/12/08 11:06:45;;;;;;;36.00;20.30;;;;;;;4.03;80.85;94669.00;5040470;28;20414;-86
2020/12/08 11:09:12;;;;;;;33.63;17.27;;;;;;;4.09;80.17;94674.88;5039737;28;20478;-87
2020/12/08 11:11:38;;;;;;;33.17;18.10;;;;;;;4.10;80.48;94672.91;5038043;28;21002;-88
2020/12/08 11:14:05;;;;;;;35.20;19.47;;;;;;;4.09;80.79;94671.47;5044123;28;20478;-88
2020/12/08 11:16:32;;;;;;;30.77;16.50;;;;;;;4.25;80.10;94662.91;5042267;28;20443;-88
2020/12/08 11:18:59;;;;;;;31.57;18.57;;;;;;;4.28;79.18;94661.81;5041900;28;20461;-87
2020/12/08 11:21:27;;;;;;;29.60;16.57;;;;;;;4.14;79.37;94676.63;5042441;28;20457;-88
2020/12/08 11:23:54;;;;;;;31.83;17.47;;;;;;;4.02;79.47;94667.59;5044819;28;20422;-88
2020/12/08 11:26:21;;;;;;;34.70;18.40;;;;;;;4.07;79.88;94669.34;5041106;28;20458;-87